createdAt,value
2022-10-28T00:02:20.563Z,8.35
2022-10-28T00:07:22.348Z,12.02
2022-10-28T00:12:24.090Z,7.53
2022-10-28T00:17:25.871Z,6.88
2022-10-28T00:22:28.086Z,6.68
2022-10-28T00:27:29.962Z,8.90
2022-10-28T00:32:32.423Z,7.90
2022-10-28T00:37:34.167Z,7.18
2022-10-28T00:42:36.005Z,8.50
2022-10-28T00:47:52.638Z,8.38
2022-10-28T00:53:05.158Z,11.43
2022-10-28T00:58:08.665Z,11.50
2022-10-28T01:03:10.579Z,9.20
2022-10-28T01:08:13.395Z,10.35
2022-10-28T01:13:52.339Z,8.20
2022-10-28T01:19:14.300Z,7.30
2022-10-28T01:24:25.485Z,7.03
2022-10-28T01:29:45.568Z,6.10
2022-10-28T01:35:05.710Z,6.60
2022-10-28T01:40:13.410Z,6.90
2022-10-28T01:45:25.657Z,7.07
2022-10-28T01:51:03.663Z,6.57
2022-10-28T01:56:10.816Z,9.88
2022-10-28T02:01:13.445Z,7.35
2022-10-28T02:06:28.665Z,9.80
2022-10-28T02:12:08.099Z,6.55
2022-10-28T02:17:25.306Z,5.97
2022-10-28T02:22:38.571Z,7.13
2022-10-28T02:27:51.336Z,7.03
2022-10-28T02:33:00.991Z,6.03
2022-10-28T02:38:09.849Z,5.30
2022-10-28T02:43:14.719Z,7.93
2022-10-28T02:48:22.174Z,5.88
2022-10-28T02:53:36.267Z,6.78
2022-10-28T02:58:40.559Z,7.82
2022-10-28T03:03:42.486Z,8.60
2022-10-28T03:08:44.228Z,8.50
2022-10-28T03:13:46.214Z,7.05
2022-10-28T03:18:47.966Z,8.15
2022-10-28T03:23:49.688Z,8.48
2022-10-28T03:28:51.449Z,6.72
2022-10-28T03:33:53.187Z,7.20
2022-10-28T03:38:54.914Z,7.75
2022-10-28T03:43:56.784Z,8.80
2022-10-28T03:48:58.546Z,5.93
2022-10-28T03:54:00.355Z,6.70
2022-10-28T03:59:02.146Z,9.07
2022-10-28T04:04:04.050Z,6.85
2022-10-28T04:09:05.784Z,7.82
2022-10-28T04:14:07.545Z,6.60
2022-10-28T04:19:09.322Z,8.75
2022-10-28T04:24:11.162Z,7.57
2022-10-28T04:29:12.958Z,9.13
2022-10-28T04:34:14.710Z,8.25
2022-10-28T04:39:16.480Z,8.63
2022-10-28T04:44:18.213Z,10.40
2022-10-28T04:49:20.016Z,9.52
2022-10-28T04:54:21.908Z,7.15
2022-10-28T04:59:23.768Z,8.80
2022-10-28T05:04:25.500Z,5.95
2022-10-28T05:09:27.211Z,8.45
2022-10-28T05:14:29.015Z,8.45
2022-10-28T05:19:30.653Z,7.32
2022-10-28T05:24:32.210Z,6.97
2022-10-28T05:29:33.756Z,7.30
2022-10-28T05:34:36.225Z,7.35
2022-10-28T05:39:37.773Z,7.53
2022-10-28T05:44:39.462Z,11.70
2022-10-28T05:49:41.029Z,7.80
2022-10-28T05:54:42.605Z,17.48
2022-10-28T05:59:44.277Z,10.57
2022-10-28T06:04:45.861Z,14.38
2022-10-28T06:09:47.425Z,13.35
2022-10-28T06:14:47.433Z,13.77
2022-10-28T06:19:49.140Z,16.83
2022-10-28T06:24:50.725Z,20.13
2022-10-28T06:29:52.439Z,22.05
2022-10-28T06:34:54.031Z,19.98
2022-10-28T06:39:57.273Z,18.60
2022-10-28T06:44:58.865Z,20.20
2022-10-28T06:50:02.024Z,17.90
2022-10-28T06:55:03.837Z,15.25
2022-10-28T07:00:05.967Z,15.48
2022-10-28T07:05:08.217Z,18.05
2022-10-28T07:10:09.783Z,15.50
2022-10-28T07:15:11.427Z,13.45
2022-10-28T07:20:13.048Z,11.52
2022-10-28T07:25:14.787Z,10.05
2022-10-28T07:30:16.488Z,15.23
2022-10-28T07:35:18.264Z,12.07
2022-10-28T07:40:20.939Z,12.32
2022-10-28T07:45:22.557Z,17.17
2022-10-28T07:50:24.195Z,10.48
2022-10-28T07:55:26.246Z,9.07
2022-10-28T08:00:27.816Z,10.25
2022-10-28T08:05:29.374Z,14.45
2022-10-28T08:10:30.943Z,9.85
2022-10-28T08:15:32.888Z,9.25
2022-10-28T08:20:34.467Z,11.70
2022-10-28T08:25:37.183Z,11.77
2022-10-28T08:30:56.648Z,9.57
2022-10-28T08:35:58.958Z,10.20
2022-10-28T08:41:15.656Z,9.40
2022-10-28T08:46:49.167Z,11.55
2022-10-28T08:51:57.694Z,9.52
2022-10-28T08:57:02.728Z,13.10
2022-10-28T09:02:22.494Z,10.57
2022-10-28T09:07:24.771Z,11.65
2022-10-28T09:12:35.681Z,12.23
2022-10-28T09:17:43.212Z,12.40
2022-10-28T09:23:00.111Z,12.23
2022-10-28T09:28:20.432Z,13.52
2022-10-28T09:33:42.781Z,16.80
2022-10-28T09:38:45.613Z,13.57
2022-10-28T09:44:21.033Z,13.23
2022-10-28T09:49:27.827Z,13.90
2022-10-28T09:54:36.144Z,14.18
2022-10-28T09:59:38.413Z,14.32
2022-10-28T10:04:39.974Z,13.85
2022-10-28T10:09:44.268Z,14.50
2022-10-28T10:14:50.268Z,13.68
2022-10-28T10:20:09.308Z,14.70
2022-10-28T10:25:23.936Z,14.85
2022-10-28T10:30:48.959Z,14.90
2022-10-28T10:36:00.806Z,15.57
2022-10-28T10:41:02.496Z,14.27
2022-10-28T10:46:15.722Z,14.73
2022-10-28T10:51:25.991Z,13.50
2022-10-28T10:56:29.796Z,14.93
2022-10-28T11:01:36.900Z,14.55
2022-10-28T11:06:44.710Z,14.43
2022-10-28T11:11:46.290Z,14.75
2022-10-28T11:16:57.949Z,13.57
2022-10-28T11:22:09.590Z,15.07
2022-10-28T11:27:38.639Z,14.23
2022-10-28T11:33:02.243Z,14.82
2022-10-28T11:38:36.546Z,14.00
2022-10-28T11:44:04.689Z,13.80
2022-10-28T11:49:07.082Z,14.30
2022-10-28T11:54:17.897Z,14.52
2022-10-28T11:59:44.456Z,15.07
2022-10-28T12:04:46.177Z,15.30
2022-10-28T12:10:15.815Z,14.93
2022-10-28T12:15:40.791Z,15.15
2022-10-28T12:21:02.013Z,16.30
2022-10-28T12:26:06.965Z,16.05
2022-10-28T12:31:24.385Z,14.73
2022-10-28T12:36:53.708Z,14.85
2022-10-28T12:41:58.548Z,15.00
2022-10-28T12:47:18.665Z,15.85
2022-10-28T12:52:31.795Z,15.50
2022-10-28T12:57:35.309Z,15.65
2022-10-28T13:02:47.175Z,15.93
2022-10-28T13:08:08.277Z,17.13
2022-10-28T13:13:28.758Z,16.15
2022-10-28T13:19:01.947Z,15.68
2022-10-28T13:24:16.568Z,16.45
2022-10-28T13:29:29.328Z,17.27
2022-10-28T13:34:37.733Z,17.45
2022-10-28T13:39:44.925Z,17.50
2022-10-28T13:45:03.616Z,15.65
2022-10-28T13:50:21.681Z,16.13
2022-10-28T13:55:42.077Z,16.50
2022-10-28T14:00:46.717Z,15.60
2022-10-28T14:05:54.436Z,16.33
2022-10-28T14:11:02.736Z,15.25
2022-10-28T14:16:23.396Z,14.88
2022-10-28T14:21:25.282Z,15.48
2022-10-28T14:26:27.050Z,16.35
2022-10-28T14:31:40.368Z,16.60
2022-10-28T14:37:05.245Z,15.27
2022-10-28T14:42:28.697Z,16.13
2022-10-28T14:47:52.197Z,16.75
2022-10-28T14:52:55.706Z,16.73
2022-10-28T14:58:20.619Z,16.42
2022-10-28T15:03:22.687Z,15.68
2022-10-28T15:08:24.876Z,15.88
2022-10-28T15:13:26.766Z,16.70
2022-10-28T15:18:28.492Z,16.88
2022-10-28T15:23:30.363Z,16.83
2022-10-28T15:28:32.182Z,16.67
2022-10-28T15:33:42.175Z,16.30
2022-10-28T15:39:04.751Z,16.13
2022-10-28T15:44:11.765Z,16.05
2022-10-28T15:49:34.133Z,15.40
2022-10-28T15:54:35.989Z,15.95
2022-10-28T15:59:38.202Z,13.77
2022-10-28T16:04:39.974Z,14.27
2022-10-28T16:09:47.953Z,14.60
2022-10-28T16:14:59.276Z,14.57
2022-10-28T16:20:17.074Z,15.25
2022-10-28T16:25:22.142Z,15.43
2022-10-28T16:30:23.979Z,15.50
2022-10-28T16:35:26.676Z,15.35
2022-10-28T16:40:50.400Z,15.40
2022-10-28T16:45:52.856Z,13.23
2022-10-28T16:50:58.132Z,17.17
2022-10-28T16:55:59.971Z,16.08
2022-10-28T17:01:01.952Z,17.35
2022-10-28T17:06:07.091Z,16.05
2022-10-28T17:11:15.068Z,15.32
2022-10-28T17:16:16.835Z,14.65
2022-10-28T17:21:18.697Z,14.30
2022-10-28T17:26:20.295Z,15.88
2022-10-28T17:31:24.908Z,16.02
2022-10-28T17:36:27.191Z,14.65
2022-10-28T17:41:29.107Z,14.95
2022-10-28T17:46:30.704Z,14.68
2022-10-28T17:51:32.265Z,13.90
2022-10-28T17:56:34.265Z,16.40
2022-10-28T18:01:36.062Z,15.85
2022-10-28T18:06:37.816Z,18.20
2022-10-28T18:11:40.021Z,16.08
2022-10-28T18:16:41.700Z,14.57
2022-10-28T18:21:44.849Z,14.48
2022-10-28T18:26:46.433Z,17.30
2022-10-28T18:31:48.117Z,15.32
2022-10-28T18:36:50.065Z,15.98
2022-10-28T18:41:51.738Z,15.00
2022-10-28T18:46:53.344Z,14.45
2022-10-28T18:51:54.916Z,17.58
2022-10-28T18:56:57.805Z,14.40
2022-10-28T19:01:59.622Z,16.55
2022-10-28T19:07:01.308Z,12.27
2022-10-28T19:12:02.951Z,12.20
2022-10-28T19:17:04.498Z,12.27
2022-10-28T19:22:08.134Z,14.73
2022-10-28T19:27:09.800Z,20.55
2022-10-28T19:32:11.412Z,14.07
2022-10-28T19:37:15.652Z,11.27
2022-10-28T19:42:17.234Z,14.55
2022-10-28T19:47:21.134Z,11.30
2022-10-28T19:52:22.690Z,11.98
2022-10-28T19:57:24.280Z,10.52
2022-10-28T20:02:25.914Z,9.85
2022-10-28T20:07:27.528Z,10.60
2022-10-28T20:12:29.128Z,12.93
2022-10-28T20:17:30.706Z,11.07
2022-10-28T20:22:32.283Z,11.77
2022-10-28T20:27:34.561Z,13.52
2022-10-28T20:32:36.402Z,12.60
2022-10-28T20:37:38.067Z,12.32
2022-10-28T20:42:39.673Z,12.27
2022-10-28T20:47:41.236Z,12.95
2022-10-28T20:52:42.810Z,13.52
2022-10-28T20:57:44.364Z,11.93
2022-10-28T21:02:46.036Z,14.10
2022-10-28T21:07:47.733Z,11.43
2022-10-28T21:12:50.091Z,10.85
2022-10-28T21:17:51.668Z,9.95
2022-10-28T21:22:53.613Z,10.32
2022-10-28T21:27:59.978Z,12.48
2022-10-28T21:33:02.595Z,11.63
2022-10-28T21:38:04.142Z,11.18
2022-10-28T21:43:06.915Z,12.05
2022-10-28T21:48:08.452Z,10.95
2022-10-28T21:53:10.037Z,9.73
2022-10-28T21:58:11.624Z,9.65
2022-10-28T22:03:13.635Z,9.93
2022-10-28T22:08:16.350Z,10.60
2022-10-28T22:13:17.899Z,13.35
2022-10-28T22:18:19.447Z,11.35
2022-10-28T22:23:21.169Z,10.25
2022-10-28T22:28:22.772Z,10.95
2022-10-28T22:33:24.301Z,9.65
2022-10-28T22:38:26.285Z,13.18
2022-10-28T22:43:27.920Z,9.95
2022-10-28T22:48:30.042Z,10.70
2022-10-28T22:53:31.656Z,11.38
2022-10-28T22:58:33.316Z,12.40
2022-10-28T23:03:43.382Z,14.35
2022-10-28T23:08:45.424Z,13.70
2022-10-28T23:13:50.933Z,11.15
2022-10-28T23:18:53.228Z,11.93
2022-10-28T23:23:57.284Z,11.30
2022-10-28T23:28:59.895Z,11.77
2022-10-28T23:34:01.496Z,14.38
2022-10-28T23:39:03.049Z,11.32
2022-10-28T23:44:04.768Z,11.38
2022-10-28T23:49:06.326Z,12.27
2022-10-28T23:54:07.972Z,10.68
2022-10-28T23:59:09.510Z,11.43
